MSC Orchestra — 3EJF3 — position and weather

sailwx.info

Track history (hours):
 
Tides and Currents Weather Stations Pressure Air Temp Water Temp Dewpoint Dewpoint Depression Visibility Wind Speed Wind Dir Waves Ship Positions

MSC Orchestra

Last reported at 2014-Jul-23 20:11 UTC. Time now 2014-Jul-24 00:18 UTC.
Position N 60°09' E 027°41'.

Length 292 m; draft 7.8 m.

Type: Ship. MMSI: 372497000.

Date/timePositionNaut miles runAvg speedWind from/ knotsBaromVisibWave heightAir tempDewpointWater temp
2014-Jul-23 20:11N 60°09' E 027°41'1117.9
2014-Jul-23 19:33N 60°03' E 027°22'1817.6
2014-Jul-23 18:33N 59°59' E 026°48'1918.6
2014-Jul-23 17:33N 59°56' E 026°11'4016.0
2014-Jul-23 15:04N 60°04' E 024°53'510.5
2014-Jul-23 14:34N 60°09' E 024°55'0 0.0
2014-Jul-23 13:25N 60°09' E 024°55'0 0.0
2014-Jul-23 12:33N 60°09' E 024°55'0 0.0
2014-Jul-23 11:30N 60°09' E 024°55'0 0.0
2014-Jul-23 10:33N 60°09' E 024°55'0 0.0
2014-Jul-23 09:32N 60°09' E 024°55'0 0.0
2014-Jul-23 08:29N 60°09' E 024°55'0 0.1
2014-Jul-23 07:33N 60°09' E 024°55'5 4.6
2014-Jul-23 06:32N 60°04' E 024°54'12 9.2
2014-Jul-23 05:13N 59°52' E 024°54'19 9.9
2014-Jul-23 03:17N 59°43' E 024°21'911.6
2014-Jul-23 02:30N 59°40' E 024°04'1111.2
2014-Jul-23 01:33N 59°37' E 023°44'1110.9
2014-Jul-23 00:33N 59°34' E 023°23'1111.1
2014-Jul-22 23:33N 59°30' E 023°03'1111.0
2014-Jul-22 22:33N 59°26' E 022°42'1211.4
2014-Jul-22 21:32N 59°20' E 022°23'1111.3
2014-Jul-22 20:33N 59°13' E 022°07'1311.4
2014-Jul-22 19:25N 59°04' E 021°48'1011.2
2014-Jul-22 18:33N 58°57' E 021°35'11811.6
2014-Jul-22 08:27N 57°17' E 019°37'1312.1
2014-Jul-22 07:24N 57°07' E 019°25'1111.9
2014-Jul-22 06:30N 56°58' E 019°14'1111.6
2014-Jul-22 05:33N 56°47' E 019°08'1413.8
2014-Jul-22 04:33N 56°34' E 019°03'1414.5
2014-Jul-22 03:33N 56°19' E 018°59'1514.6
2014-Jul-22 02:33N 56°05' E 018°59'1514.6
2014-Jul-22 01:33N 55°50' E 018°59'1413.6
2014-Jul-22 00:33N 55°37' E 018°58'1313.5
2014-Jul-21 23:33N 55°23' E 018°58'1413.8
2014-Jul-21 22:33N 55°09' E 018°58'1414.2
2014-Jul-21 21:34N 54°55' E 018°58'1414.2
2014-Jul-21 20:34N 54°41' E 018°58'414.3
2014-Jul-21 20:18N 54°38' E 018°56'912.4
2014-Jul-21 19:33N 54°32' E 018°44'6 5.9
2014-Jul-21 18:32N 54°32' E 018°33'0 0.0
2014-Jul-21 17:28N 54°32' E 018°33'0 0.0
2014-Jul-21 16:31N 54°32' E 018°33'0 0.0
2014-Jul-21 15:30N 54°32' E 018°33'0 0.0
2014-Jul-21 14:33N 54°32' E 018°33'0 0.0
2014-Jul-21 13:33N 54°32' E 018°33'0 0.0
2014-Jul-21 12:32N 54°32' E 018°33'0 0.0
2014-Jul-21 11:32N 54°32' E 018°33'4 3.7
2014-Jul-21 10:33N 54°32' E 018°39'1312.7
2014-Jul-21 09:34N 54°40' E 018°56'1312.8
2014-Jul-21 08:34N 54°52' E 018°49'1414.0
2014-Jul-21 07:33N 54°57' E 018°26'1413.8
2014-Jul-21 06:33N 54°55' E 018°02'1615.8
2014-Jul-21 05:33N 54°53' E 017°35'1717.0
2014-Jul-21 04:33N 54°50' E 017°06'1817.6
2014-Jul-21 03:32N 54°48' E 016°35'1817.8
2014-Jul-21 02:31N 54°44' E 016°04'1717.5
2014-Jul-21 01:33N 54°42' E 015°35'1717.3
2014-Jul-21 00:33N 54°39' E 015°06'1716.9
2014-Jul-20 23:34N 54°37' E 014°37'1615.8
2014-Jul-20 22:33N 54°39' E 014°10'1616.4
2014-Jul-20 21:34N 54°49' E 013°47'1716.8
2014-Jul-20 20:33N 54°59' E 013°25'1717.0
2014-Jul-20 19:34N 55°10' E 013°02'1616.1
2014-Jul-20 18:34N 55°19' E 012°38'1514.6
2014-Jul-20 17:33N 55°33' E 012°42'8 8.4
2014-Jul-20 16:33N 55°42' E 012°41'3 2.6
2014-Jul-20 15:31N 55°42' E 012°36'0 0.0
2014-Jul-20 14:31N 55°42' E 012°36'0 0.0
2014-Jul-20 13:33N 55°42' E 012°36'0 0.0
2014-Jul-20 12:33N 55°42' E 012°36'0 0.0
2014-Jul-20 11:32N 55°42' E 012°36'0 0.0
2014-Jul-20 10:32N 55°42' E 012°36'0 0.0
2014-Jul-20 09:31N 55°42' E 012°36'0 0.0
2014-Jul-20 08:31N 55°42' E 012°36'0 0.0
2014-Jul-20 07:30N 55°42' E 012°36'0 0.0
2014-Jul-20 06:33N 55°42' E 012°36'0 0.0
2014-Jul-20 05:33N 55°42' E 012°36'2 1.6
2014-Jul-20 04:33N 55°43' E 012°38'8 8.2
2014-Jul-20 03:33N 55°35' E 012°42'9 9.1
2014-Jul-20 02:33N 55°26' E 012°42'1413.6
2014-Jul-20 01:33N 55°13' E 012°40'1313.4
2014-Jul-20 00:33N 54°59' E 012°44'1414.1
2014-Jul-19 23:33N 54°45' E 012°44'1414.1
2014-Jul-19 22:33N 54°37' E 012°24'1313.4
2014-Jul-19 21:33N 54°26' E 012°12'1514.6
2014-Jul-19 20:33N 54°25' E 011°47'1716.7
2014-Jul-19 19:33N 54°32' E 011°21'1615.7
2014-Jul-19 18:33N 54°35' E 010°54'1616.4
2014-Jul-19 17:33N 54°32' E 010°27'1312.7
2014-Jul-19 16:33N 54°23' E 010°11'3 0.3
2014-Jul-19 06:26N 54°20' E 010°10'1010.9
2014-Jul-19 05:33N 54°29' E 010°16'1413.6
2014-Jul-19 04:33N 54°35' E 010°36'1413.5
2014-Jul-19 03:33N 54°45' E 010°52'1212.5
2014-Jul-19 02:34N 54°57' E 010°57'1414.0
2014-Jul-19 01:33N 55°11' E 011°04'1414.2
2014-Jul-19 00:33N 55°25' E 010°59'1514.9
2014-Jul-18 23:33N 55°38' E 010°47'1414.4
2014-Jul-18 22:33N 55°52' E 010°52'1616.1
2014-Jul-18 21:33N 56°06' E 011°07'1717.4
2014-Jul-18 20:34N 56°20' E 011°25'1817.8
2014-Jul-18 19:34N 56°35' E 011°41'1616.3
2014-Jul-18 18:33N 56°51' E 011°48'1818.0
2014-Jul-18 17:32N 57°09' E 011°37'1818.2
2014-Jul-18 16:34N 57°26' E 011°37'1514.8
2014-Jul-18 15:33N 57°41' E 011°44'3 2.7
2014-Jul-18 14:31N 57°42' E 011°49'0 0.0
2014-Jul-18 13:31N 57°42' E 011°49'0 0.0
2014-Jul-18 12:33N 57°42' E 011°49'0 0.0
2014-Jul-18 11:33N 57°42' E 011°49'0 0.0
2014-Jul-18 10:32N 57°42' E 011°49'0 0.0
2014-Jul-18 09:32N 57°42' E 011°49'0 0.0
2014-Jul-18 08:31N 57°42' E 011°49'0 0.0
2014-Jul-18 07:31N 57°42' E 011°49'0 0.0
2014-Jul-18 06:31N 57°42' E 011°49'1 1.1
2014-Jul-18 05:33N 57°41' E 011°48'1010.4
2014-Jul-18 04:33N 57°33' E 011°35'1514.7
2014-Jul-18 03:33N 57°42' E 011°13'1716.6
2014-Jul-18 02:33N 57°53' E 010°50'1717.5
2014-Jul-18 01:33N 57°56' E 010°18'14117.6
2014-Jul-17 17:33N 58°02' E 005°52'1918.3
2014-Jul-17 16:33N 58°14' E 005°25'1615.9
2014-Jul-17 15:33N 58°29' E 005°16'1818.0
2014-Jul-17 14:33N 58°47' E 005°23'1515.5
2014-Jul-17 13:34N 59°01' E 005°33'6 6.2
2014-Jul-17 12:31N 58°58' E 005°44'0 0.0
2014-Jul-17 11:34N 58°58' E 005°44'0 0.0
2014-Jul-17 10:33N 58°58' E 005°44'0 0.0
2014-Jul-17 09:33N 58°58' E 005°44'0 0.0
2014-Jul-17 08:32N 58°58' E 005°44'0 0.0
2014-Jul-17 07:29N 58°58' E 005°44'0 0.0
2014-Jul-17 06:32N 58°58' E 005°44'0 0.0
2014-Jul-17 05:33N 58°58' E 005°44'3 3.3
2014-Jul-17 04:33N 59°01' E 005°40'1010.1
2014-Jul-17 03:33N 59°07' E 005°23'1716.5
2014-Jul-17 02:33N 59°10' E 004°52'  
2014-Jul-14 06:22N 59°15' E 004°39'1214.3
2014-Jul-14 05:33N 59°03' E 004°44'1413.9
2014-Jul-14 04:30N 58°50' E 004°56'1414.4
2014-Jul-14 03:33N 58°38' E 005°08'1514.0
2014-Jul-14 02:29N 58°24' E 005°20'1314.1
2014-Jul-14 01:33N 58°15' E 005°37'1414.4
2014-Jul-14 00:33N 58°06' E 005°58'  
Track history (hours):
 
Tides and Currents Weather Stations Pressure Air Temp Water Temp Dewpoint Dewpoint Depression Visibility Wind Speed Wind Dir Waves Ship Positions

MSC Orchestra

Last reported at 2014-Jul-23 20:11 UTC. Time now 2014-Jul-24 00:18 UTC.
Position N 60°09' E 027°41'.

Length 292 m; draft 7.8 m.

Type: Ship. MMSI: 372497000.

Date/timePositionNaut miles runAvg speedWind from/ knotsBaromVisibWave heightAir tempDewpointWater temp
2014-Jul-23 20:11N 60°09' E 027°41'1117.9
2014-Jul-23 19:33N 60°03' E 027°22'1817.6
2014-Jul-23 18:33N 59°59' E 026°48'1918.6
2014-Jul-23 17:33N 59°56' E 026°11'4016.0
2014-Jul-23 15:04N 60°04' E 024°53'510.5
2014-Jul-23 14:34N 60°09' E 024°55'0 0.0
2014-Jul-23 13:25N 60°09' E 024°55'0 0.0
2014-Jul-23 12:33N 60°09' E 024°55'0 0.0
2014-Jul-23 11:30N 60°09' E 024°55'0 0.0
2014-Jul-23 10:33N 60°09' E 024°55'0 0.0
2014-Jul-23 09:32N 60°09' E 024°55'0 0.0
2014-Jul-23 08:29N 60°09' E 024°55'0 0.1
2014-Jul-23 07:33N 60°09' E 024°55'5 4.6
2014-Jul-23 06:32N 60°04' E 024°54'12 9.2
2014-Jul-23 05:13N 59°52' E 024°54'19 9.9
2014-Jul-23 03:17N 59°43' E 024°21'911.6
2014-Jul-23 02:30N 59°40' E 024°04'1111.2
2014-Jul-23 01:33N 59°37' E 023°44'1110.9
2014-Jul-23 00:33N 59°34' E 023°23'1111.1
2014-Jul-22 23:33N 59°30' E 023°03'1111.0
2014-Jul-22 22:33N 59°26' E 022°42'1211.4
2014-Jul-22 21:32N 59°20' E 022°23'1111.3
2014-Jul-22 20:33N 59°13' E 022°07'1311.4
2014-Jul-22 19:25N 59°04' E 021°48'1011.2
2014-Jul-22 18:33N 58°57' E 021°35'11811.6
2014-Jul-22 08:27N 57°17' E 019°37'1312.1
2014-Jul-22 07:24N 57°07' E 019°25'1111.9
2014-Jul-22 06:30N 56°58' E 019°14'1111.6
2014-Jul-22 05:33N 56°47' E 019°08'1413.8
2014-Jul-22 04:33N 56°34' E 019°03'1414.5
2014-Jul-22 03:33N 56°19' E 018°59'1514.6
2014-Jul-22 02:33N 56°05' E 018°59'1514.6
2014-Jul-22 01:33N 55°50' E 018°59'1413.6
2014-Jul-22 00:33N 55°37' E 018°58'1313.5
2014-Jul-21 23:33N 55°23' E 018°58'1413.8
2014-Jul-21 22:33N 55°09' E 018°58'1414.2
2014-Jul-21 21:34N 54°55' E 018°58'1414.2
2014-Jul-21 20:34N 54°41' E 018°58'414.3
2014-Jul-21 20:18N 54°38' E 018°56'912.4
2014-Jul-21 19:33N 54°32' E 018°44'6 5.9
2014-Jul-21 18:32N 54°32' E 018°33'0 0.0
2014-Jul-21 17:28N 54°32' E 018°33'0 0.0
2014-Jul-21 16:31N 54°32' E 018°33'0 0.0
2014-Jul-21 15:30N 54°32' E 018°33'0 0.0
2014-Jul-21 14:33N 54°32' E 018°33'0 0.0
2014-Jul-21 13:33N 54°32' E 018°33'0 0.0
2014-Jul-21 12:32N 54°32' E 018°33'0 0.0
2014-Jul-21 11:32N 54°32' E 018°33'4 3.7
2014-Jul-21 10:33N 54°32' E 018°39'1312.7
2014-Jul-21 09:34N 54°40' E 018°56'1312.8
2014-Jul-21 08:34N 54°52' E 018°49'1414.0
2014-Jul-21 07:33N 54°57' E 018°26'1413.8
2014-Jul-21 06:33N 54°55' E 018°02'1615.8
2014-Jul-21 05:33N 54°53' E 017°35'1717.0
2014-Jul-21 04:33N 54°50' E 017°06'1817.6
2014-Jul-21 03:32N 54°48' E 016°35'1817.8
2014-Jul-21 02:31N 54°44' E 016°04'1717.5
2014-Jul-21 01:33N 54°42' E 015°35'1717.3
2014-Jul-21 00:33N 54°39' E 015°06'1716.9
2014-Jul-20 23:34N 54°37' E 014°37'1615.8
2014-Jul-20 22:33N 54°39' E 014°10'1616.4
2014-Jul-20 21:34N 54°49' E 013°47'1716.8
2014-Jul-20 20:33N 54°59' E 013°25'1717.0
2014-Jul-20 19:34N 55°10' E 013°02'1616.1
2014-Jul-20 18:34N 55°19' E 012°38'1514.6
2014-Jul-20 17:33N 55°33' E 012°42'8 8.4
2014-Jul-20 16:33N 55°42' E 012°41'3 2.6
2014-Jul-20 15:31N 55°42' E 012°36'0 0.0
2014-Jul-20 14:31N 55°42' E 012°36'0 0.0
2014-Jul-20 13:33N 55°42' E 012°36'0 0.0
2014-Jul-20 12:33N 55°42' E 012°36'0 0.0
2014-Jul-20 11:32N 55°42' E 012°36'0 0.0
2014-Jul-20 10:32N 55°42' E 012°36'0 0.0
2014-Jul-20 09:31N 55°42' E 012°36'0 0.0
2014-Jul-20 08:31N 55°42' E 012°36'0 0.0
2014-Jul-20 07:30N 55°42' E 012°36'0 0.0
2014-Jul-20 06:33N 55°42' E 012°36'0 0.0
2014-Jul-20 05:33N 55°42' E 012°36'2 1.6
2014-Jul-20 04:33N 55°43' E 012°38'8 8.2
2014-Jul-20 03:33N 55°35' E 012°42'9 9.1
2014-Jul-20 02:33N 55°26' E 012°42'1413.6
2014-Jul-20 01:33N 55°13' E 012°40'1313.4
2014-Jul-20 00:33N 54°59' E 012°44'1414.1
2014-Jul-19 23:33N 54°45' E 012°44'1414.1
2014-Jul-19 22:33N 54°37' E 012°24'1313.4
2014-Jul-19 21:33N 54°26' E 012°12'1514.6
2014-Jul-19 20:33N 54°25' E 011°47'1716.7
2014-Jul-19 19:33N 54°32' E 011°21'1615.7
2014-Jul-19 18:33N 54°35' E 010°54'1616.4
2014-Jul-19 17:33N 54°32' E 010°27'1312.7
2014-Jul-19 16:33N 54°23' E 010°11'3 0.3
2014-Jul-19 06:26N 54°20' E 010°10'1010.9
2014-Jul-19 05:33N 54°29' E 010°16'1413.6
2014-Jul-19 04:33N 54°35' E 010°36'1413.5
2014-Jul-19 03:33N 54°45' E 010°52'1212.5
2014-Jul-19 02:34N 54°57' E 010°57'1414.0
2014-Jul-19 01:33N 55°11' E 011°04'1414.2
2014-Jul-19 00:33N 55°25' E 010°59'1514.9
2014-Jul-18 23:33N 55°38' E 010°47'1414.4
2014-Jul-18 22:33N 55°52' E 010°52'1616.1
2014-Jul-18 21:33N 56°06' E 011°07'1717.4
2014-Jul-18 20:34N 56°20' E 011°25'1817.8
2014-Jul-18 19:34N 56°35' E 011°41'1616.3
2014-Jul-18 18:33N 56°51' E 011°48'1818.0
2014-Jul-18 17:32N 57°09' E 011°37'1818.2
2014-Jul-18 16:34N 57°26' E 011°37'1514.8
2014-Jul-18 15:33N 57°41' E 011°44'3 2.7
2014-Jul-18 14:31N 57°42' E 011°49'0 0.0
2014-Jul-18 13:31N 57°42' E 011°49'0 0.0
2014-Jul-18 12:33N 57°42' E 011°49'0 0.0
2014-Jul-18 11:33N 57°42' E 011°49'0 0.0
2014-Jul-18 10:32N 57°42' E 011°49'0 0.0
2014-Jul-18 09:32N 57°42' E 011°49'0 0.0
2014-Jul-18 08:31N 57°42' E 011°49'0 0.0
2014-Jul-18 07:31N 57°42' E 011°49'0 0.0
2014-Jul-18 06:31N 57°42' E 011°49'1 1.1
2014-Jul-18 05:33N 57°41' E 011°48'1010.4
2014-Jul-18 04:33N 57°33' E 011°35'1514.7
2014-Jul-18 03:33N 57°42' E 011°13'1716.6
2014-Jul-18 02:33N 57°53' E 010°50'1717.5
2014-Jul-18 01:33N 57°56' E 010°18'14117.6
2014-Jul-17 17:33N 58°02' E 005°52'1918.3
2014-Jul-17 16:33N 58°14' E 005°25'1615.9
2014-Jul-17 15:33N 58°29' E 005°16'1818.0
2014-Jul-17 14:33N 58°47' E 005°23'1515.5
2014-Jul-17 13:34N 59°01' E 005°33'6 6.2
2014-Jul-17 12:31N 58°58' E 005°44'0 0.0
2014-Jul-17 11:34N 58°58' E 005°44'0 0.0
2014-Jul-17 10:33N 58°58' E 005°44'0 0.0
2014-Jul-17 09:33N 58°58' E 005°44'0 0.0
2014-Jul-17 08:32N 58°58' E 005°44'0 0.0
2014-Jul-17 07:29N 58°58' E 005°44'0 0.0
2014-Jul-17 06:32N 58°58' E 005°44'0 0.0
2014-Jul-17 05:33N 58°58' E 005°44'3 3.3
2014-Jul-17 04:33N 59°01' E 005°40'1010.1
2014-Jul-17 03:33N 59°07' E 005°23'1716.5
2014-Jul-17 02:33N 59°10' E 004°52'  
2014-Jul-14 06:22N 59°15' E 004°39'1214.3
2014-Jul-14 05:33N 59°03' E 004°44'1413.9
2014-Jul-14 04:30N 58°50' E 004°56'1414.4
2014-Jul-14 03:33N 58°38' E 005°08'1514.0
2014-Jul-14 02:29N 58°24' E 005°20'1314.1
2014-Jul-14 01:33N 58°15' E 005°37'1414.4
2014-Jul-14 00:33N 58°06' E 005°58'  

Dump ship's entire track history